sensor_id;sensor_type;location;lat;lon;timestamp;P1;durP1;ratioP1;P2;durP2;ratioP2
68457;SDS011;65384;52.016;5.428;2023-05-19T00:00:41;12.15;;;4.20;;
68457;SDS011;65384;52.016;5.428;2023-05-19T00:03:08;16.05;;;3.80;;
68457;SDS011;65384;52.016;5.428;2023-05-19T00:05:36;12.35;;;3.63;;
68457;SDS011;65384;52.016;5.428;2023-05-19T00:08:10;6.78;;;3.55;;
68457;SDS011;65384;52.016;5.428;2023-05-19T00:10:36;11.60;;;4.22;;
68457;SDS011;65384;52.016;5.428;2023-05-19T00:13:02;8.25;;;3.67;;
68457;SDS011;65384;52.016;5.428;2023-05-19T00:15:27;12.60;;;4.30;;
68457;SDS011;65384;52.016;5.428;2023-05-19T00:17:53;12.88;;;4.05;;
68457;SDS011;65384;52.016;5.428;2023-05-19T00:20:19;10.75;;;4.15;;
68457;SDS011;65384;52.016;5.428;2023-05-19T00:22:45;11.43;;;4.30;;
68457;SDS011;65384;52.016;5.428;2023-05-19T00:25:11;9.93;;;4.30;;
68457;SDS011;65384;52.016;5.428;2023-05-19T00:27:36;11.98;;;3.90;;
68457;SDS011;65384;52.016;5.428;2023-05-19T00:30:01;8.88;;;4.05;;
68457;SDS011;65384;52.016;5.428;2023-05-19T00:32:27;10.93;;;4.50;;
68457;SDS011;65384;52.016;5.428;2023-05-19T00:34:52;8.45;;;3.88;;
68457;SDS011;65384;52.016;5.428;2023-05-19T00:37:17;11.38;;;4.60;;
68457;SDS011;65384;52.016;5.428;2023-05-19T00:39:43;14.43;;;4.30;;
68457;SDS011;65384;52.016;5.428;2023-05-19T00:42:08;13.73;;;4.82;;
68457;SDS011;65384;52.016;5.428;2023-05-19T00:44:35;14.38;;;4.47;;
68457;SDS011;65384;52.016;5.428;2023-05-19T00:47:02;11.63;;;4.13;;
68457;SDS011;65384;52.016;5.428;2023-05-19T00:49:27;15.23;;;4.78;;
68457;SDS011;65384;52.016;5.428;2023-05-19T00:51:52;9.18;;;4.30;;
68457;SDS011;65384;52.016;5.428;2023-05-19T00:54:18;8.82;;;4.13;;
68457;SDS011;65384;52.016;5.428;2023-05-19T00:56:44;11.57;;;4.20;;
68457;SDS011;65384;52.016;5.428;2023-05-19T00:59:10;12.32;;;4.22;;
68457;SDS011;65384;52.016;5.428;2023-05-19T01:01:35;9.18;;;3.80;;
68457;SDS011;65384;52.016;5.428;2023-05-19T01:04:01;12.05;;;4.82;;
68457;SDS011;65384;52.016;5.428;2023-05-19T01:06:27;13.45;;;4.45;;
68457;SDS011;65384;52.016;5.428;2023-05-19T01:08:53;13.70;;;3.95;;
68457;SDS011;65384;52.016;5.428;2023-05-19T01:11:19;14.15;;;4.88;;
68457;SDS011;65384;52.016;5.428;2023-05-19T01:13:45;10.82;;;4.22;;
68457;SDS011;65384;52.016;5.428;2023-05-19T01:16:13;10.98;;;4.07;;
68457;SDS011;65384;52.016;5.428;2023-05-19T01:18:46;14.10;;;5.10;;
68457;SDS011;65384;52.016;5.428;2023-05-19T01:32:38;12.85;;;4.22;;
68457;SDS011;65384;52.016;5.428;2023-05-19T01:35:05;12.13;;;4.38;;
68457;SDS011;65384;52.016;5.428;2023-05-19T01:37:32;11.52;;;4.22;;
68457;SDS011;65384;52.016;5.428;2023-05-19T01:39:58;11.27;;;4.22;;
68457;SDS011;65384;52.016;5.428;2023-05-19T01:42:25;14.23;;;4.68;;
68457;SDS011;65384;52.016;5.428;2023-05-19T01:44:51;11.18;;;4.03;;
68457;SDS011;65384;52.016;5.428;2023-05-19T01:47:17;11.10;;;4.60;;
68457;SDS011;65384;52.016;5.428;2023-05-19T01:49:43;11.73;;;4.60;;
68457;SDS011;65384;52.016;5.428;2023-05-19T01:52:08;14.80;;;4.30;;
68457;SDS011;65384;52.016;5.428;2023-05-19T01:54:34;9.68;;;4.45;;
68457;SDS011;65384;52.016;5.428;2023-05-19T01:57:03;9.02;;;4.25;;
68457;SDS011;65384;52.016;5.428;2023-05-19T01:59:48;13.02;;;4.18;;
68457;SDS011;65384;52.016;5.428;2023-05-19T02:02:21;13.30;;;4.47;;
68457;SDS011;65384;52.016;5.428;2023-05-19T02:04:54;12.70;;;4.45;;
68457;SDS011;65384;52.016;5.428;2023-05-19T02:09:56;11.68;;;4.72;;
68457;SDS011;65384;52.016;5.428;2023-05-19T02:12:29;12.05;;;5.00;;
68457;SDS011;65384;52.016;5.428;2023-05-19T02:15:09;15.77;;;4.68;;
68457;SDS011;65384;52.016;5.428;2023-05-19T02:17:37;12.23;;;4.50;;
68457;SDS011;65384;52.016;5.428;2023-05-19T02:20:05;12.55;;;4.90;;
68457;SDS011;65384;52.016;5.428;2023-05-19T02:22:32;10.13;;;4.53;;
68457;SDS011;65384;52.016;5.428;2023-05-19T02:24:58;15.85;;;5.13;;
68457;SDS011;65384;52.016;5.428;2023-05-19T02:27:24;10.35;;;4.25;;
68457;SDS011;65384;52.016;5.428;2023-05-19T02:29:50;14.85;;;4.88;;
68457;SDS011;65384;52.016;5.428;2023-05-19T02:32:16;16.08;;;5.20;;
68457;SDS011;65384;52.016;5.428;2023-05-19T02:34:41;11.38;;;4.47;;
68457;SDS011;65384;52.016;5.428;2023-05-19T02:37:09;12.63;;;4.38;;
68457;SDS011;65384;52.016;5.428;2023-05-19T02:39:38;14.07;;;4.72;;
68457;SDS011;65384;52.016;5.428;2023-05-19T02:42:04;15.50;;;5.35;;
68457;SDS011;65384;52.016;5.428;2023-05-19T02:44:30;17.45;;;5.10;;
68457;SDS011;65384;52.016;5.428;2023-05-19T02:46:55;12.77;;;4.43;;
68457;SDS011;65384;52.016;5.428;2023-05-19T02:49:20;11.93;;;4.95;;
68457;SDS011;65384;52.016;5.428;2023-05-19T02:51:46;12.57;;;4.72;;
68457;SDS011;65384;52.016;5.428;2023-05-19T02:54:11;12.73;;;4.53;;
68457;SDS011;65384;52.016;5.428;2023-05-19T02:56:36;14.75;;;4.70;;
68457;SDS011;65384;52.016;5.428;2023-05-19T02:59:02;13.95;;;4.65;;
68457;SDS011;65384;52.016;5.428;2023-05-19T03:01:27;16.88;;;4.93;;
68457;SDS011;65384;52.016;5.428;2023-05-19T03:03:52;13.43;;;4.93;;
68457;SDS011;65384;52.016;5.428;2023-05-19T03:06:18;13.73;;;5.10;;
68457;SDS011;65384;52.016;5.428;2023-05-19T03:08:43;10.30;;;4.53;;
68457;SDS011;65384;52.016;5.428;2023-05-19T03:11:09;15.60;;;4.90;;
68457;SDS011;65384;52.016;5.428;2023-05-19T03:13:34;15.23;;;4.88;;
68457;SDS011;65384;52.016;5.428;2023-05-19T03:16:00;10.23;;;4.88;;
68457;SDS011;65384;52.016;5.428;2023-05-19T03:18:26;13.55;;;4.80;;
68457;SDS011;65384;52.016;5.428;2023-05-19T03:20:51;13.65;;;4.90;;
68457;SDS011;65384;52.016;5.428;2023-05-19T03:23:18;13.80;;;4.80;;
68457;SDS011;65384;52.016;5.428;2023-05-19T03:25:44;14.60;;;4.70;;
68457;SDS011;65384;52.016;5.428;2023-05-19T03:28:10;12.95;;;4.63;;
68457;SDS011;65384;52.016;5.428;2023-05-19T03:30:35;19.30;;;5.07;;
68457;SDS011;65384;52.016;5.428;2023-05-19T03:33:01;14.68;;;4.82;;
68457;SDS011;65384;52.016;5.428;2023-05-19T03:35:26;15.80;;;5.53;;
68457;SDS011;65384;52.016;5.428;2023-05-19T03:37:52;13.90;;;5.05;;
68457;SDS011;65384;52.016;5.428;2023-05-19T03:40:17;12.40;;;4.80;;
68457;SDS011;65384;52.016;5.428;2023-05-19T03:42:43;11.48;;;4.80;;
68457;SDS011;65384;52.016;5.428;2023-05-19T03:45:08;14.07;;;5.13;;
68457;SDS011;65384;52.016;5.428;2023-05-19T03:47:34;15.23;;;4.90;;
68457;SDS011;65384;52.016;5.428;2023-05-19T03:49:59;14.52;;;4.88;;
68457;SDS011;65384;52.016;5.428;2023-05-19T03:52:25;12.95;;;4.97;;
68457;SDS011;65384;52.016;5.428;2023-05-19T03:54:50;14.82;;;5.28;;
68457;SDS011;65384;52.016;5.428;2023-05-19T03:57:16;13.57;;;5.43;;
68457;SDS011;65384;52.016;5.428;2023-05-19T03:59:42;15.40;;;5.63;;
68457;SDS011;65384;52.016;5.428;2023-05-19T04:02:08;12.25;;;4.72;;
68457;SDS011;65384;52.016;5.428;2023-05-19T04:04:33;13.80;;;5.00;;
68457;SDS011;65384;52.016;5.428;2023-05-19T04:06:58;13.43;;;5.60;;
68457;SDS011;65384;52.016;5.428;2023-05-19T04:09:24;15.85;;;4.70;;
68457;SDS011;65384;52.016;5.428;2023-05-19T04:11:49;16.23;;;5.38;;
68457;SDS011;65384;52.016;5.428;2023-05-19T04:14:15;14.07;;;5.20;;
68457;SDS011;65384;52.016;5.428;2023-05-19T04:16:40;17.30;;;5.22;;
68457;SDS011;65384;52.016;5.428;2023-05-19T04:19:05;17.88;;;5.32;;
68457;SDS011;65384;52.016;5.428;2023-05-19T04:21:31;17.48;;;6.38;;
68457;SDS011;65384;52.016;5.428;2023-05-19T04:23:56;16.52;;;5.65;;
68457;SDS011;65384;52.016;5.428;2023-05-19T04:26:24;18.40;;;5.18;;
68457;SDS011;65384;52.016;5.428;2023-05-19T04:28:50;18.80;;;6.03;;
68457;SDS011;65384;52.016;5.428;2023-05-19T04:31:16;19.65;;;6.10;;
68457;SDS011;65384;52.016;5.428;2023-05-19T04:33:42;17.48;;;6.07;;
68457;SDS011;65384;52.016;5.428;2023-05-19T04:36:07;19.33;;;5.53;;
68457;SDS011;65384;52.016;5.428;2023-05-19T04:38:34;13.95;;;5.60;;
68457;SDS011;65384;52.016;5.428;2023-05-19T04:41:01;14.38;;;5.38;;
68457;SDS011;65384;52.016;5.428;2023-05-19T04:43:26;17.55;;;5.53;;
68457;SDS011;65384;52.016;5.428;2023-05-19T04:45:52;17.23;;;5.93;;
68457;SDS011;65384;52.016;5.428;2023-05-19T04:48:18;14.93;;;5.53;;
68457;SDS011;65384;52.016;5.428;2023-05-19T04:50:45;13.32;;;5.55;;
68457;SDS011;65384;52.016;5.428;2023-05-19T04:53:12;14.20;;;5.80;;
68457;SDS011;65384;52.016;5.428;2023-05-19T04:55:38;14.70;;;5.15;;
68457;SDS011;65384;52.016;5.428;2023-05-19T04:58:04;13.93;;;5.85;;
68457;SDS011;65384;52.016;5.428;2023-05-19T05:00:30;15.27;;;5.70;;
68457;SDS011;65384;52.016;5.428;2023-05-19T05:02:55;15.25;;;5.72;;
68457;SDS011;65384;52.016;5.428;2023-05-19T05:05:21;14.60;;;5.60;;
68457;SDS011;65384;52.016;5.428;2023-05-19T05:07:47;14.20;;;5.65;;
68457;SDS011;65384;52.016;5.428;2023-05-19T05:10:13;14.70;;;5.40;;
68457;SDS011;65384;52.016;5.428;2023-05-19T05:12:39;16.50;;;5.30;;
68457;SDS011;65384;52.016;5.428;2023-05-19T05:15:04;21.55;;;5.85;;
68457;SDS011;65384;52.016;5.428;2023-05-19T05:17:31;16.30;;;6.22;;
68457;SDS011;65384;52.016;5.428;2023-05-19T05:19:57;16.27;;;6.28;;
68457;SDS011;65384;52.016;5.428;2023-05-19T05:22:23;21.13;;;6.25;;
68457;SDS011;65384;52.016;5.428;2023-05-19T05:24:49;15.95;;;5.68;;
68457;SDS011;65384;52.016;5.428;2023-05-19T05:27:14;17.80;;;6.35;;
68457;SDS011;65384;52.016;5.428;2023-05-19T05:29:40;18.38;;;6.35;;
68457;SDS011;65384;52.016;5.428;2023-05-19T05:32:05;15.57;;;6.10;;
68457;SDS011;65384;52.016;5.428;2023-05-19T05:34:31;14.63;;;5.70;;
68457;SDS011;65384;52.016;5.428;2023-05-19T05:36:57;15.45;;;5.72;;
68457;SDS011;65384;52.016;5.428;2023-05-19T05:39:22;15.05;;;6.05;;
68457;SDS011;65384;52.016;5.428;2023-05-19T05:41:48;16.25;;;6.03;;
68457;SDS011;65384;52.016;5.428;2023-05-19T05:44:13;20.90;;;6.20;;
68457;SDS011;65384;52.016;5.428;2023-05-19T05:46:39;13.80;;;5.65;;
68457;SDS011;65384;52.016;5.428;2023-05-19T05:49:04;15.98;;;5.82;;
68457;SDS011;65384;52.016;5.428;2023-05-19T05:51:30;13.70;;;5.65;;
68457;SDS011;65384;52.016;5.428;2023-05-19T05:53:56;15.25;;;5.65;;
68457;SDS011;65384;52.016;5.428;2023-05-19T05:56:23;15.48;;;6.13;;
68457;SDS011;65384;52.016;5.428;2023-05-19T05:58:48;17.33;;;6.18;;
68457;SDS011;65384;52.016;5.428;2023-05-19T06:01:14;16.02;;;5.95;;
68457;SDS011;65384;52.016;5.428;2023-05-19T06:03:41;15.07;;;5.82;;
68457;SDS011;65384;52.016;5.428;2023-05-19T06:06:10;16.17;;;5.72;;
68457;SDS011;65384;52.016;5.428;2023-05-19T06:08:36;16.63;;;5.68;;
68457;SDS011;65384;52.016;5.428;2023-05-19T06:11:01;14.98;;;5.90;;
68457;SDS011;65384;52.016;5.428;2023-05-19T06:13:35;17.92;;;5.93;;
68457;SDS011;65384;52.016;5.428;2023-05-19T06:16:02;16.80;;;5.80;;
68457;SDS011;65384;52.016;5.428;2023-05-19T06:18:27;13.60;;;5.50;;
68457;SDS011;65384;52.016;5.428;2023-05-19T06:20:53;15.52;;;6.22;;
68457;SDS011;65384;52.016;5.428;2023-05-19T06:23:18;14.60;;;5.78;;
68457;SDS011;65384;52.016;5.428;2023-05-19T06:25:43;14.50;;;6.10;;
68457;SDS011;65384;52.016;5.428;2023-05-19T06:28:09;15.30;;;5.32;;
68457;SDS011;65384;52.016;5.428;2023-05-19T06:30:35;13.35;;;5.38;;
68457;SDS011;65384;52.016;5.428;2023-05-19T06:33:00;14.50;;;5.65;;
68457;SDS011;65384;52.016;5.428;2023-05-19T06:35:27;13.68;;;5.93;;
68457;SDS011;65384;52.016;5.428;2023-05-19T06:37:52;18.45;;;5.88;;
68457;SDS011;65384;52.016;5.428;2023-05-19T06:40:19;11.43;;;5.70;;
68457;SDS011;65384;52.016;5.428;2023-05-19T06:42:45;12.55;;;5.40;;
68457;SDS011;65384;52.016;5.428;2023-05-19T06:45:10;11.82;;;5.00;;
68457;SDS011;65384;52.016;5.428;2023-05-19T06:47:36;14.32;;;5.70;;
68457;SDS011;65384;52.016;5.428;2023-05-19T06:50:02;10.23;;;5.15;;
68457;SDS011;65384;52.016;5.428;2023-05-19T06:52:27;13.77;;;5.38;;
68457;SDS011;65384;52.016;5.428;2023-05-19T06:54:52;13.52;;;5.20;;
68457;SDS011;65384;52.016;5.428;2023-05-19T06:57:18;11.68;;;5.10;;
68457;SDS011;65384;52.016;5.428;2023-05-19T06:59:43;12.02;;;5.20;;
68457;SDS011;65384;52.016;5.428;2023-05-19T07:02:10;11.35;;;4.88;;
68457;SDS011;65384;52.016;5.428;2023-05-19T07:04:36;10.18;;;4.45;;
68457;SDS011;65384;52.016;5.428;2023-05-19T07:07:01;9.90;;;4.57;;
68457;SDS011;65384;52.016;5.428;2023-05-19T07:09:27;10.60;;;4.82;;
68457;SDS011;65384;52.016;5.428;2023-05-19T07:11:53;11.30;;;4.60;;
68457;SDS011;65384;52.016;5.428;2023-05-19T07:14:20;15.23;;;5.05;;
68457;SDS011;65384;52.016;5.428;2023-05-19T07:16:46;9.88;;;4.50;;
68457;SDS011;65384;52.016;5.428;2023-05-19T07:19:11;14.88;;;4.68;;
68457;SDS011;65384;52.016;5.428;2023-05-19T07:21:36;9.15;;;4.40;;
68457;SDS011;65384;52.016;5.428;2023-05-19T07:24:02;8.90;;;4.05;;
68457;SDS011;65384;52.016;5.428;2023-05-19T07:26:27;10.38;;;4.30;;
68457;SDS011;65384;52.016;5.428;2023-05-19T07:28:53;13.35;;;4.97;;
68457;SDS011;65384;52.016;5.428;2023-05-19T07:31:18;11.35;;;4.75;;
68457;SDS011;65384;52.016;5.428;2023-05-19T07:33:43;9.60;;;4.30;;
68457;SDS011;65384;52.016;5.428;2023-05-19T07:36:09;8.10;;;4.07;;
68457;SDS011;65384;52.016;5.428;2023-05-19T07:38:35;8.57;;;3.92;;
68457;SDS011;65384;52.016;5.428;2023-05-19T07:41:00;11.45;;;4.05;;
68457;SDS011;65384;52.016;5.428;2023-05-19T07:43:26;8.05;;;3.80;;
68457;SDS011;65384;52.016;5.428;2023-05-19T07:45:52;12.10;;;4.30;;
68457;SDS011;65384;52.016;5.428;2023-05-19T07:48:18;7.75;;;3.97;;
68457;SDS011;65384;52.016;5.428;2023-05-19T07:50:47;8.40;;;3.83;;
68457;SDS011;65384;52.016;5.428;2023-05-19T07:53:13;9.77;;;3.45;;
68457;SDS011;65384;52.016;5.428;2023-05-19T07:55:38;12.18;;;3.65;;
68457;SDS011;65384;52.016;5.428;2023-05-19T07:58:03;8.50;;;3.53;;
68457;SDS011;65384;52.016;5.428;2023-05-19T08:00:29;12.95;;;3.83;;
68457;SDS011;65384;52.016;5.428;2023-05-19T08:02:54;11.52;;;3.60;;
68457;SDS011;65384;52.016;5.428;2023-05-19T08:05:21;12.60;;;3.50;;
68457;SDS011;65384;52.016;5.428;2023-05-19T08:07:46;8.18;;;3.50;;
68457;SDS011;65384;52.016;5.428;2023-05-19T08:10:12;7.72;;;3.40;;
68457;SDS011;65384;52.016;5.428;2023-05-19T08:12:37;9.48;;;3.15;;
68457;SDS011;65384;52.016;5.428;2023-05-19T08:15:03;10.07;;;3.00;;
68457;SDS011;65384;52.016;5.428;2023-05-19T08:17:28;12.05;;;3.20;;
68457;SDS011;65384;52.016;5.428;2023-05-19T08:19:54;10.65;;;2.88;;
68457;SDS011;65384;52.016;5.428;2023-05-19T08:22:19;7.10;;;2.67;;
68457;SDS011;65384;52.016;5.428;2023-05-19T08:24:45;8.35;;;2.80;;
68457;SDS011;65384;52.016;5.428;2023-05-19T08:27:10;7.18;;;2.40;;
68457;SDS011;65384;52.016;5.428;2023-05-19T08:29:35;9.02;;;2.47;;
68457;SDS011;65384;52.016;5.428;2023-05-19T08:32:02;5.85;;;2.28;;
68457;SDS011;65384;52.016;5.428;2023-05-19T08:34:27;6.03;;;2.47;;
68457;SDS011;65384;52.016;5.428;2023-05-19T08:36:53;4.95;;;2.10;;
68457;SDS011;65384;52.016;5.428;2023-05-19T08:39:21;6.65;;;2.30;;
68457;SDS011;65384;52.016;5.428;2023-05-19T08:41:51;7.43;;;2.30;;
68457;SDS011;65384;52.016;5.428;2023-05-19T08:44:17;8.32;;;2.50;;
68457;SDS011;65384;52.016;5.428;2023-05-19T08:46:42;5.93;;;2.28;;
68457;SDS011;65384;52.016;5.428;2023-05-19T08:49:11;4.38;;;2.10;;
68457;SDS011;65384;52.016;5.428;2023-05-19T08:51:39;8.60;;;2.35;;
68457;SDS011;65384;52.016;5.428;2023-05-19T08:54:11;6.60;;;2.20;;
68457;SDS011;65384;52.016;5.428;2023-05-19T08:59:04;8.13;;;2.42;;
68457;SDS011;65384;52.016;5.428;2023-05-19T09:01:30;8.27;;;2.10;;
68457;SDS011;65384;52.016;5.428;2023-05-19T09:03:56;5.78;;;1.83;;
68457;SDS011;65384;52.016;5.428;2023-05-19T09:06:22;6.03;;;1.80;;
68457;SDS011;65384;52.016;5.428;2023-05-19T09:08:47;6.25;;;2.10;;
68457;SDS011;65384;52.016;5.428;2023-05-19T09:11:12;4.22;;;1.77;;
68457;SDS011;65384;52.016;5.428;2023-05-19T09:13:38;8.85;;;1.92;;
68457;SDS011;65384;52.016;5.428;2023-05-19T09:16:04;8.50;;;1.90;;
68457;SDS011;65384;52.016;5.428;2023-05-19T09:18:30;7.72;;;1.90;;
68457;SDS011;65384;52.016;5.428;2023-05-19T09:20:56;9.38;;;2.20;;
68457;SDS011;65384;52.016;5.428;2023-05-19T09:23:32;9.57;;;2.10;;
68457;SDS011;65384;52.016;5.428;2023-05-19T09:26:02;5.13;;;1.95;;
68457;SDS011;65384;52.016;5.428;2023-05-19T09:28:29;6.03;;;1.67;;
68457;SDS011;65384;52.016;5.428;2023-05-19T09:31:02;5.70;;;1.90;;
68457;SDS011;65384;52.016;5.428;2023-05-19T09:33:32;6.20;;;1.70;;
68457;SDS011;65384;52.016;5.428;2023-05-19T09:35:58;4.82;;;1.60;;
68457;SDS011;65384;52.016;5.428;2023-05-19T09:38:24;4.25;;;1.63;;
68457;SDS011;65384;52.016;5.428;2023-05-19T09:40:51;4.15;;;1.77;;
68457;SDS011;65384;52.016;5.428;2023-05-19T09:43:20;5.10;;;1.85;;
68457;SDS011;65384;52.016;5.428;2023-05-19T09:45:46;4.85;;;1.77;;
68457;SDS011;65384;52.016;5.428;2023-05-19T09:48:15;3.67;;;1.80;;
68457;SDS011;65384;52.016;5.428;2023-05-19T09:50:43;6.05;;;2.13;;
68457;SDS011;65384;52.016;5.428;2023-05-19T09:53:13;5.47;;;1.85;;
68457;SDS011;65384;52.016;5.428;2023-05-19T09:55:39;4.72;;;1.75;;
68457;SDS011;65384;52.016;5.428;2023-05-19T09:58:05;6.85;;;1.90;;
68457;SDS011;65384;52.016;5.428;2023-05-19T10:00:31;9.10;;;2.15;;
68457;SDS011;65384;52.016;5.428;2023-05-19T10:02:58;5.32;;;2.00;;
68457;SDS011;65384;52.016;5.428;2023-05-19T10:05:24;9.10;;;2.28;;
68457;SDS011;65384;52.016;5.428;2023-05-19T10:07:51;5.45;;;2.10;;
68457;SDS011;65384;52.016;5.428;2023-05-19T10:10:18;9.98;;;2.42;;
68457;SDS011;65384;52.016;5.428;2023-05-19T10:12:44;6.50;;;2.00;;
68457;SDS011;65384;52.016;5.428;2023-05-19T10:15:17;7.20;;;2.20;;
68457;SDS011;65384;52.016;5.428;2023-05-19T10:17:43;8.70;;;2.30;;
68457;SDS011;65384;52.016;5.428;2023-05-19T10:20:13;6.10;;;1.90;;
68457;SDS011;65384;52.016;5.428;2023-05-19T10:22:41;3.40;;;1.70;;
68457;SDS011;65384;52.016;5.428;2023-05-19T10:25:07;4.80;;;1.80;;
68457;SDS011;65384;52.016;5.428;2023-05-19T10:27:53;7.43;;;1.90;;
68457;SDS011;65384;52.016;5.428;2023-05-19T10:30:24;4.32;;;1.80;;
68457;SDS011;65384;52.016;5.428;2023-05-19T10:32:51;4.57;;;1.80;;
68457;SDS011;65384;52.016;5.428;2023-05-19T10:43:50;5.07;;;1.50;;
68457;SDS011;65384;52.016;5.428;2023-05-19T10:46:23;4.72;;;1.90;;
68457;SDS011;65384;52.016;5.428;2023-05-19T10:48:51;7.72;;;2.10;;
68457;SDS011;65384;52.016;5.428;2023-05-19T10:51:16;4.47;;;1.80;;
68457;SDS011;65384;52.016;5.428;2023-05-19T10:53:42;3.30;;;1.70;;
68457;SDS011;65384;52.016;5.428;2023-05-19T10:56:10;5.25;;;1.80;;
68457;SDS011;65384;52.016;5.428;2023-05-19T10:58:38;5.32;;;1.85;;
68457;SDS011;65384;52.016;5.428;2023-05-19T11:01:13;3.92;;;2.10;;
68457;SDS011;65384;52.016;5.428;2023-05-19T11:06:24;6.65;;;1.90;;
68457;SDS011;65384;52.016;5.428;2023-05-19T11:08:52;5.50;;;1.83;;
68457;SDS011;65384;52.016;5.428;2023-05-19T11:11:47;6.43;;;1.80;;
68457;SDS011;65384;52.016;5.428;2023-05-19T11:16:48;6.95;;;1.63;;
68457;SDS011;65384;52.016;5.428;2023-05-19T11:19:18;5.40;;;1.70;;
68457;SDS011;65384;52.016;5.428;2023-05-19T11:21:49;8.02;;;1.65;;
68457;SDS011;65384;52.016;5.428;2023-05-19T11:26:57;6.55;;;1.60;;
68457;SDS011;65384;52.016;5.428;2023-05-19T11:29:22;4.70;;;1.60;;
68457;SDS011;65384;52.016;5.428;2023-05-19T11:31:48;4.00;;;1.65;;
68457;SDS011;65384;52.016;5.428;2023-05-19T11:34:13;6.40;;;1.77;;
68457;SDS011;65384;52.016;5.428;2023-05-19T11:36:39;5.88;;;1.60;;
68457;SDS011;65384;52.016;5.428;2023-05-19T11:39:05;5.63;;;1.88;;
68457;SDS011;65384;52.016;5.428;2023-05-19T11:41:31;3.75;;;1.58;;
68457;SDS011;65384;52.016;5.428;2023-05-19T11:43:56;5.45;;;1.90;;
68457;SDS011;65384;52.016;5.428;2023-05-19T11:46:21;4.72;;;1.90;;
68457;SDS011;65384;52.016;5.428;2023-05-19T11:48:47;5.22;;;1.90;;
68457;SDS011;65384;52.016;5.428;2023-05-19T11:51:12;5.65;;;1.63;;
68457;SDS011;65384;52.016;5.428;2023-05-19T11:53:37;8.57;;;1.83;;
68457;SDS011;65384;52.016;5.428;2023-05-19T11:56:04;5.05;;;1.80;;
68457;SDS011;65384;52.016;5.428;2023-05-19T11:58:29;5.65;;;1.50;;
68457;SDS011;65384;52.016;5.428;2023-05-19T12:00:55;5.20;;;2.05;;
68457;SDS011;65384;52.016;5.428;2023-05-19T12:03:21;5.82;;;1.80;;
68457;SDS011;65384;52.016;5.428;2023-05-19T12:05:51;8.15;;;1.90;;
68457;SDS011;65384;52.016;5.428;2023-05-19T12:08:17;5.43;;;2.00;;
68457;SDS011;65384;52.016;5.428;2023-05-19T12:10:43;6.53;;;1.95;;
68457;SDS011;65384;52.016;5.428;2023-05-19T12:13:12;6.90;;;1.90;;
68457;SDS011;65384;52.016;5.428;2023-05-19T12:15:37;6.70;;;2.05;;
68457;SDS011;65384;52.016;5.428;2023-05-19T12:18:03;4.55;;;2.05;;
68457;SDS011;65384;52.016;5.428;2023-05-19T12:20:29;6.57;;;2.00;;
68457;SDS011;65384;52.016;5.428;2023-05-19T12:22:59;6.57;;;2.10;;
68457;SDS011;65384;52.016;5.428;2023-05-19T12:25:25;8.45;;;2.50;;
68457;SDS011;65384;52.016;5.428;2023-05-19T12:27:56;4.47;;;2.03;;
68457;SDS011;65384;52.016;5.428;2023-05-19T12:30:26;4.13;;;2.10;;
68457;SDS011;65384;52.016;5.428;2023-05-19T12:32:53;6.47;;;2.05;;
68457;SDS011;65384;52.016;5.428;2023-05-19T12:35:24;6.20;;;1.98;;
68457;SDS011;65384;52.016;5.428;2023-05-19T12:37:53;6.50;;;2.28;;
68457;SDS011;65384;52.016;5.428;2023-05-19T12:40:19;4.93;;;2.13;;
68457;SDS011;65384;52.016;5.428;2023-05-19T12:42:44;7.97;;;2.10;;
68457;SDS011;65384;52.016;5.428;2023-05-19T12:45:09;4.80;;;2.10;;
68457;SDS011;65384;52.016;5.428;2023-05-19T12:47:35;5.60;;;1.80;;
68457;SDS011;65384;52.016;5.428;2023-05-19T12:50:02;5.32;;;2.00;;
68457;SDS011;65384;52.016;5.428;2023-05-19T12:52:42;6.57;;;2.10;;
68457;SDS011;65384;52.016;5.428;2023-05-19T12:55:10;12.18;;;2.17;;
68457;SDS011;65384;52.016;5.428;2023-05-19T12:57:38;10.13;;;2.35;;
68457;SDS011;65384;52.016;5.428;2023-05-19T13:02:32;7.95;;;2.63;;
68457;SDS011;65384;52.016;5.428;2023-05-19T13:04:59;9.95;;;2.22;;
68457;SDS011;65384;52.016;5.428;2023-05-19T13:07:24;7.78;;;2.30;;
68457;SDS011;65384;52.016;5.428;2023-05-19T13:09:50;5.63;;;2.20;;
68457;SDS011;65384;52.016;5.428;2023-05-19T13:12:15;6.55;;;2.20;;
68457;SDS011;65384;52.016;5.428;2023-05-19T13:14:41;7.38;;;2.33;;
68457;SDS011;65384;52.016;5.428;2023-05-19T13:17:07;7.85;;;2.50;;
68457;SDS011;65384;52.016;5.428;2023-05-19T13:19:33;6.03;;;2.10;;
68457;SDS011;65384;52.016;5.428;2023-05-19T13:21:58;7.53;;;2.30;;
68457;SDS011;65384;52.016;5.428;2023-05-19T13:24:23;5.30;;;2.20;;
68457;SDS011;65384;52.016;5.428;2023-05-19T13:26:49;5.32;;;2.03;;
68457;SDS011;65384;52.016;5.428;2023-05-19T13:29:14;6.38;;;2.20;;
68457;SDS011;65384;52.016;5.428;2023-05-19T13:31:39;7.25;;;2.10;;
68457;SDS011;65384;52.016;5.428;2023-05-19T13:34:05;6.82;;;2.40;;
68457;SDS011;65384;52.016;5.428;2023-05-19T13:36:30;6.63;;;2.20;;
68457;SDS011;65384;52.016;5.428;2023-05-19T13:38:57;3.92;;;1.90;;
68457;SDS011;65384;52.016;5.428;2023-05-19T13:41:23;6.60;;;2.10;;
68457;SDS011;65384;52.016;5.428;2023-05-19T13:43:50;6.80;;;2.20;;
68457;SDS011;65384;52.016;5.428;2023-05-19T13:46:16;6.50;;;2.00;;
68457;SDS011;65384;52.016;5.428;2023-05-19T13:48:41;7.72;;;2.10;;
68457;SDS011;65384;52.016;5.428;2023-05-19T13:51:07;6.38;;;2.08;;
68457;SDS011;65384;52.016;5.428;2023-05-19T13:53:32;4.80;;;2.00;;
68457;SDS011;65384;52.016;5.428;2023-05-19T13:55:59;5.78;;;2.30;;
68457;SDS011;65384;52.016;5.428;2023-05-19T13:58:24;5.35;;;1.90;;
68457;SDS011;65384;52.016;5.428;2023-05-19T14:00:50;6.65;;;2.03;;
68457;SDS011;65384;52.016;5.428;2023-05-19T14:03:18;5.32;;;2.10;;
68457;SDS011;65384;52.016;5.428;2023-05-19T14:05:44;5.40;;;2.17;;
68457;SDS011;65384;52.016;5.428;2023-05-19T14:08:11;3.75;;;1.90;;
68457;SDS011;65384;52.016;5.428;2023-05-19T14:10:36;7.55;;;2.13;;
68457;SDS011;65384;52.016;5.428;2023-05-19T14:13:02;6.88;;;2.38;;
68457;SDS011;65384;52.016;5.428;2023-05-19T14:15:28;6.30;;;2.00;;
68457;SDS011;65384;52.016;5.428;2023-05-19T14:17:53;5.63;;;2.33;;
68457;SDS011;65384;52.016;5.428;2023-05-19T14:20:19;7.68;;;2.20;;
68457;SDS011;65384;52.016;5.428;2023-05-19T14:22:44;5.53;;;2.08;;
68457;SDS011;65384;52.016;5.428;2023-05-19T14:25:09;7.95;;;2.20;;
68457;SDS011;65384;52.016;5.428;2023-05-19T14:27:35;7.32;;;2.83;;
68457;SDS011;65384;52.016;5.428;2023-05-19T14:30:00;7.65;;;2.25;;
68457;SDS011;65384;52.016;5.428;2023-05-19T14:32:26;5.35;;;1.95;;
68457;SDS011;65384;52.016;5.428;2023-05-19T14:34:51;5.78;;;2.45;;
68457;SDS011;65384;52.016;5.428;2023-05-19T14:37:17;6.07;;;2.50;;
68457;SDS011;65384;52.016;5.428;2023-05-19T14:39:43;7.25;;;2.40;;
68457;SDS011;65384;52.016;5.428;2023-05-19T14:42:08;6.93;;;2.40;;
68457;SDS011;65384;52.016;5.428;2023-05-19T14:44:34;8.73;;;2.45;;
68457;SDS011;65384;52.016;5.428;2023-05-19T14:47:01;5.82;;;2.10;;
68457;SDS011;65384;52.016;5.428;2023-05-19T14:49:27;5.95;;;2.10;;
68457;SDS011;65384;52.016;5.428;2023-05-19T14:51:53;6.68;;;2.17;;
68457;SDS011;65384;52.016;5.428;2023-05-19T14:54:19;4.93;;;2.10;;
68457;SDS011;65384;52.016;5.428;2023-05-19T14:56:44;7.28;;;2.50;;
68457;SDS011;65384;52.016;5.428;2023-05-19T14:59:09;7.03;;;2.40;;
68457;SDS011;65384;52.016;5.428;2023-05-19T15:01:35;7.28;;;2.50;;
68457;SDS011;65384;52.016;5.428;2023-05-19T15:04:00;8.80;;;2.40;;
68457;SDS011;65384;52.016;5.428;2023-05-19T15:06:25;8.38;;;2.40;;
68457;SDS011;65384;52.016;5.428;2023-05-19T15:08:51;9.18;;;2.35;;
68457;SDS011;65384;52.016;5.428;2023-05-19T15:11:16;7.30;;;2.97;;